createdAt,value
2019-03-23T00:00:37.537Z,5.57
2019-03-23T00:04:43.178Z,5.40
2019-03-23T00:08:48.619Z,4.77
2019-03-23T00:12:54.182Z,5.30
2019-03-23T00:16:59.635Z,4.07
2019-03-23T00:21:05.134Z,5.50
2019-03-23T00:25:10.867Z,5.33
2019-03-23T00:29:16.467Z,5.00
2019-03-23T00:33:21.901Z,4.47
2019-03-23T00:37:27.504Z,4.30
2019-03-23T00:41:32.951Z,5.20
2019-03-23T00:45:38.698Z,4.87
2019-03-23T00:49:44.120Z,4.63
2019-03-23T00:53:49.576Z,4.97
2019-03-23T00:57:56.146Z,4.50
2019-03-23T01:02:01.667Z,4.50
2019-03-23T01:06:07.290Z,4.97
2019-03-23T01:10:13.003Z,4.40
2019-03-23T01:14:18.626Z,4.33
2019-03-23T01:18:24.069Z,4.37
2019-03-23T01:22:29.751Z,3.73
2019-03-23T01:26:35.600Z,3.80
2019-03-23T01:30:41.163Z,3.77
2019-03-23T01:34:46.602Z,4.83
2019-03-23T01:38:52.919Z,4.20
2019-03-23T01:42:59.283Z,4.00
2019-03-23T01:47:04.725Z,4.30
2019-03-23T01:51:10.495Z,4.10
2019-03-23T01:55:15.940Z,3.83
2019-03-23T01:59:21.533Z,4.57
2019-03-23T02:03:26.936Z,4.40
2019-03-23T02:07:32.553Z,3.53
2019-03-23T02:11:38.060Z,4.80
2019-03-23T02:15:43.679Z,4.33
2019-03-23T02:19:49.196Z,4.10
2019-03-23T02:23:54.791Z,3.00
2019-03-23T02:28:00.225Z,5.57
2019-03-23T02:32:05.891Z,3.70
2019-03-23T02:36:11.338Z,3.67
2019-03-23T02:40:16.904Z,4.50
2019-03-23T02:44:22.307Z,5.70
2019-03-23T02:48:27.743Z,4.30
2019-03-23T02:52:33.300Z,4.93
2019-03-23T02:56:38.702Z,4.60
2019-03-23T03:00:44.308Z,4.10
2019-03-23T03:04:49.755Z,5.60
2019-03-23T03:08:55.314Z,4.77
2019-03-23T03:13:00.774Z,5.00
2019-03-23T03:17:06.687Z,4.43
2019-03-23T03:21:12.300Z,3.73
2019-03-23T03:25:17.746Z,4.07
2019-03-23T03:29:23.652Z,5.23
2019-03-23T03:33:29.087Z,4.53
2019-03-23T03:37:35.685Z,3.27
2019-03-23T03:41:41.131Z,5.03
2019-03-23T03:45:46.803Z,3.70
2019-03-23T03:49:52.413Z,3.60
2019-03-23T03:53:57.858Z,4.60
2019-03-23T03:58:03.439Z,3.97
2019-03-23T04:02:08.916Z,4.10
2019-03-23T04:06:14.401Z,5.03
2019-03-23T04:10:19.854Z,4.90
2019-03-23T04:14:25.381Z,4.17
2019-03-23T04:18:30.828Z,4.23
2019-03-23T04:22:36.326Z,4.70
2019-03-23T04:26:41.858Z,5.07
2019-03-23T04:30:47.391Z,4.00
2019-03-23T04:34:52.813Z,4.43
2019-03-23T04:38:58.309Z,4.10
2019-03-23T04:43:03.767Z,4.10
2019-03-23T04:47:09.225Z,5.30
2019-03-23T04:51:14.677Z,5.87
2019-03-23T04:55:20.151Z,5.67
2019-03-23T04:59:25.593Z,4.90
2019-03-23T05:03:31.150Z,5.83
2019-03-23T05:07:36.572Z,5.40
2019-03-23T05:11:42.407Z,4.60
2019-03-23T05:15:48.493Z,5.07
2019-03-23T05:19:53.950Z,4.47
2019-03-23T05:23:59.515Z,3.87
2019-03-23T05:28:04.938Z,5.67
2019-03-23T05:32:10.486Z,4.70
2019-03-23T05:36:15.936Z,4.43
2019-03-23T05:40:21.780Z,4.50
2019-03-23T05:44:27.229Z,4.80
2019-03-23T05:48:32.670Z,4.27
2019-03-23T05:52:38.530Z,4.77
2019-03-23T05:56:44.356Z,5.37
2019-03-23T06:00:49.931Z,5.70
2019-03-23T06:04:55.539Z,4.83
2019-03-23T06:09:01.852Z,4.77
2019-03-23T06:13:07.402Z,6.10
2019-03-23T06:17:12.882Z,5.77
2019-03-23T06:21:18.535Z,5.63
2019-03-23T06:25:24.227Z,6.43
2019-03-23T06:29:29.672Z,5.00
2019-03-23T06:33:35.279Z,5.53
2019-03-23T06:37:40.720Z,23.63
2019-03-23T06:41:46.170Z,25.97
2019-03-23T06:45:51.787Z,40.53
2019-03-23T06:49:57.390Z,41.77
2019-03-23T06:54:02.826Z,36.13
2019-03-23T06:58:08.478Z,27.33
2019-03-23T07:02:14.562Z,22.63
2019-03-23T07:06:20.052Z,15.50
2019-03-23T07:10:25.590Z,10.70
2019-03-23T07:14:31.259Z,6.80
2019-03-23T07:18:37.195Z,7.67
2019-03-23T07:22:43.136Z,6.63
2019-03-23T07:26:48.817Z,7.90
2019-03-23T07:30:54.834Z,6.67
2019-03-23T07:35:00.598Z,5.07
2019-03-23T07:39:07.696Z,5.30
2019-03-23T07:43:13.701Z,5.00
2019-03-23T07:47:19.343Z,5.33
2019-03-23T07:51:24.958Z,5.60
2019-03-23T07:55:31.076Z,4.83
2019-03-23T07:59:37.236Z,7.00
2019-03-23T08:03:42.707Z,5.60
2019-03-23T08:07:48.439Z,6.37
2019-03-23T08:11:54.085Z,6.40
2019-03-23T08:15:59.623Z,5.30
2019-03-23T08:20:05.288Z,5.30
2019-03-23T08:24:10.754Z,7.00
2019-03-23T08:28:16.436Z,6.17
2019-03-23T08:32:21.890Z,6.30
2019-03-23T08:36:27.408Z,6.27
2019-03-23T08:40:32.909Z,6.83
2019-03-23T08:44:38.373Z,6.50
2019-03-23T08:48:43.878Z,7.00
2019-03-23T08:52:49.418Z,6.60
2019-03-23T08:56:54.996Z,7.00
2019-03-23T09:01:01.184Z,6.17
2019-03-23T09:05:06.967Z,7.33
2019-03-23T09:09:12.422Z,7.20
2019-03-23T09:13:19.085Z,7.70
2019-03-23T09:17:24.600Z,7.57
2019-03-23T09:21:30.081Z,6.50
2019-03-23T09:25:35.595Z,7.10
2019-03-23T09:29:41.634Z,7.87
2019-03-23T09:33:47.114Z,7.20
2019-03-23T09:37:52.611Z,7.90
2019-03-23T09:41:58.073Z,7.20
2019-03-23T09:46:03.589Z,9.53
2019-03-23T09:50:11.201Z,6.53
2019-03-23T09:54:16.696Z,8.30
2019-03-23T09:58:22.225Z,8.07
2019-03-23T10:02:27.657Z,7.47
2019-03-23T10:06:33.532Z,7.50
2019-03-23T10:10:39.074Z,7.90
2019-03-23T10:14:44.859Z,7.53
2019-03-23T10:18:50.285Z,7.97
2019-03-23T10:22:55.881Z,6.50
2019-03-23T10:27:01.672Z,8.03
2019-03-23T10:31:07.148Z,7.77
2019-03-23T10:35:12.762Z,7.30
2019-03-23T10:39:18.582Z,7.73
2019-03-23T10:43:24.055Z,8.13
2019-03-23T10:47:29.721Z,7.60
2019-03-23T10:51:35.433Z,7.67
2019-03-23T10:55:40.871Z,7.40
2019-03-23T10:59:46.306Z,7.13
2019-03-23T11:03:51.734Z,8.10
2019-03-23T11:07:57.264Z,7.23
2019-03-23T11:12:02.929Z,7.37
2019-03-23T11:16:08.363Z,7.80
2019-03-23T11:20:14.252Z,6.67
2019-03-23T11:24:19.711Z,7.70
2019-03-23T11:28:25.405Z,7.97
2019-03-23T11:32:30.862Z,6.67
2019-03-23T11:36:36.314Z,7.20
2019-03-23T11:40:51.805Z,6.47
2019-03-23T11:44:49.078Z,6.70
2019-03-23T11:48:54.780Z,7.87
2019-03-23T11:53:00.272Z,6.90
2019-03-23T11:57:05.718Z,8.40
2019-03-23T12:01:11.304Z,8.70
2019-03-23T12:05:17.037Z,7.10
2019-03-23T12:09:22.451Z,6.17
2019-03-23T12:13:27.897Z,8.17
2019-03-23T12:17:33.440Z,7.47
2019-03-23T12:21:39.262Z,8.20
2019-03-23T12:25:44.688Z,7.40
2019-03-23T12:29:50.821Z,6.63
2019-03-23T12:33:56.380Z,8.23
2019-03-23T12:38:01.843Z,8.03
2019-03-23T12:42:07.377Z,7.00
2019-03-23T12:46:12.978Z,7.20
2019-03-23T12:50:18.854Z,6.60
2019-03-23T12:54:24.506Z,7.50
2019-03-23T12:58:30.097Z,7.40
2019-03-23T13:02:35.549Z,7.70
2019-03-23T13:06:40.985Z,7.13
2019-03-23T13:10:46.422Z,7.80
2019-03-23T13:14:52.071Z,7.03
2019-03-23T13:18:57.502Z,6.73
2019-03-23T13:23:03.904Z,6.60
2019-03-23T13:27:09.359Z,7.77
2019-03-23T13:31:14.769Z,6.20
2019-03-23T13:35:20.319Z,6.20
2019-03-23T13:39:25.762Z,5.70
2019-03-23T13:43:31.218Z,5.90
2019-03-23T13:47:36.825Z,6.03
2019-03-23T13:51:42.705Z,6.47
2019-03-23T13:55:48.592Z,6.20
2019-03-23T13:59:54.124Z,6.00
2019-03-23T14:03:59.555Z,5.17
2019-03-23T14:08:05.458Z,4.77
2019-03-23T14:12:10.912Z,5.10
2019-03-23T14:16:16.330Z,6.33
2019-03-23T14:20:21.762Z,5.77
2019-03-23T14:24:27.326Z,5.63
2019-03-23T14:28:32.773Z,4.80
2019-03-23T14:32:38.286Z,6.07
2019-03-23T14:36:43.764Z,5.13
2019-03-23T14:40:49.217Z,5.00
2019-03-23T14:44:54.651Z,4.63
2019-03-23T14:49:01.730Z,4.70
2019-03-23T14:53:07.356Z,5.10
2019-03-23T14:57:12.822Z,5.93
2019-03-23T15:01:18.291Z,4.73
2019-03-23T15:05:23.851Z,4.80
2019-03-23T15:09:29.576Z,4.47
2019-03-23T15:13:35.013Z,3.83
2019-03-23T15:17:48.450Z,5.30
2019-03-23T15:21:48.201Z,4.50
2019-03-23T15:25:53.986Z,4.80
2019-03-23T15:29:59.494Z,4.80
2019-03-23T15:34:05.433Z,6.40
2019-03-23T15:38:11.116Z,4.70
2019-03-23T15:42:24.409Z,5.00
2019-03-23T15:46:23.814Z,4.17
2019-03-23T15:50:29.486Z,5.47
2019-03-23T15:54:35.017Z,5.30
2019-03-23T15:58:40.473Z,6.13
2019-03-23T16:02:45.936Z,7.10
2019-03-23T16:06:51.472Z,4.87
2019-03-23T16:10:56.943Z,5.47
2019-03-23T16:15:02.538Z,4.97
2019-03-23T16:19:08.007Z,5.50
2019-03-23T16:23:13.437Z,5.50
2019-03-23T16:27:19.029Z,4.97
2019-03-23T16:31:24.567Z,5.03
2019-03-23T16:35:30.002Z,4.00
2019-03-23T16:39:35.873Z,5.07
2019-03-23T16:43:41.363Z,3.83
2019-03-23T16:47:47.033Z,3.80
2019-03-23T16:51:52.536Z,5.80
2019-03-23T16:55:58.021Z,5.23
2019-03-23T17:00:03.656Z,3.60
2019-03-23T17:04:09.237Z,4.40
2019-03-23T17:08:14.875Z,4.40
2019-03-23T17:12:20.342Z,4.50
2019-03-23T17:16:25.837Z,4.80
2019-03-23T17:20:32.957Z,4.40
2019-03-23T17:24:39.162Z,3.43
2019-03-23T17:28:44.867Z,4.00
2019-03-23T17:32:50.390Z,4.47
2019-03-23T17:36:55.891Z,7.63
2019-03-23T17:41:02.046Z,7.57
2019-03-23T17:45:08.524Z,6.73
2019-03-23T17:49:13.963Z,4.50
2019-03-23T17:53:19.414Z,4.33
2019-03-23T17:57:25.288Z,5.50
2019-03-23T18:01:30.725Z,4.30
2019-03-23T18:05:41.687Z,4.30
2019-03-23T18:09:53.931Z,3.30
2019-03-23T18:14:03.411Z,4.90
2019-03-23T18:18:09.291Z,3.80
2019-03-23T18:22:20.013Z,4.53
2019-03-23T18:26:25.765Z,4.10
2019-03-23T18:30:54.685Z,4.40
2019-03-23T18:35:07.543Z,5.20
2019-03-23T18:39:13.368Z,4.53
2019-03-23T18:43:27.750Z,5.60
2019-03-23T18:47:37.106Z,5.33
2019-03-23T18:51:46.910Z,7.67
2019-03-23T18:55:56.593Z,7.20
2019-03-23T19:00:06.595Z,7.73
2019-03-23T19:04:16.187Z,8.23
2019-03-23T19:08:26.259Z,8.37
2019-03-23T19:12:38.487Z,7.20
2019-03-23T19:16:52.856Z,8.37
2019-03-23T19:21:05.104Z,7.30
2019-03-23T19:25:22.124Z,8.10
2019-03-23T19:29:33.802Z,8.07
2019-03-23T19:33:40.833Z,8.27
2019-03-23T19:37:46.432Z,8.47
2019-03-23T19:41:51.909Z,7.87
2019-03-23T19:46:06.029Z,9.20
2019-03-23T19:50:23.029Z,8.57
2019-03-23T19:54:34.223Z,7.40
2019-03-23T19:58:44.820Z,7.23
2019-03-23T20:02:54.312Z,6.80
2019-03-23T20:06:59.758Z,6.20
2019-03-23T20:11:05.383Z,7.20
2019-03-23T20:15:12.237Z,6.93
2019-03-23T20:19:18.051Z,8.37
2019-03-23T20:23:24.028Z,8.73
2019-03-23T20:27:29.748Z,6.30
2019-03-23T20:31:35.694Z,8.37
2019-03-23T20:35:41.842Z,10.27
2019-03-23T20:39:47.452Z,7.87
2019-03-23T20:43:53.125Z,8.50
2019-03-23T20:48:08.944Z,8.60
2019-03-23T20:52:21.667Z,8.10
2019-03-23T20:56:28.672Z,10.33
2019-03-23T21:00:34.201Z,8.17
2019-03-23T21:04:48.321Z,8.90
2019-03-23T21:09:09.418Z,8.10
2019-03-23T21:13:20.516Z,9.53
2019-03-23T21:17:26.081Z,8.70
2019-03-23T21:21:31.570Z,6.87
2019-03-23T21:25:37.110Z,7.03
2019-03-23T21:29:42.672Z,8.83
2019-03-23T21:33:48.075Z,5.97
2019-03-23T21:37:53.626Z,6.40
2019-03-23T21:41:59.469Z,6.70
2019-03-23T21:46:05.055Z,6.17
2019-03-23T21:50:11.001Z,6.33
2019-03-23T21:54:16.512Z,6.07
2019-03-23T21:58:21.996Z,6.50
2019-03-23T22:02:27.828Z,5.00
2019-03-23T22:06:33.336Z,5.07
2019-03-23T22:10:38.863Z,5.30
2019-03-23T22:14:44.401Z,6.20
2019-03-23T22:18:49.853Z,6.40
2019-03-23T22:22:56.425Z,6.00
2019-03-23T22:27:01.978Z,6.40
2019-03-23T22:31:07.547Z,5.77
2019-03-23T22:35:13.108Z,6.30
2019-03-23T22:39:18.637Z,6.10
2019-03-23T22:43:24.107Z,5.90
2019-03-23T22:47:29.698Z,5.97
2019-03-23T22:51:35.182Z,7.63
2019-03-23T22:55:40.614Z,4.90
2019-03-23T22:59:46.148Z,5.47
2019-03-23T23:03:51.601Z,6.80
2019-03-23T23:07:57.131Z,5.47
2019-03-23T23:12:02.574Z,5.47
2019-03-23T23:16:08.290Z,5.83
2019-03-23T23:20:13.943Z,5.47
2019-03-23T23:24:19.500Z,6.00
2019-03-23T23:28:24.932Z,6.53
2019-03-23T23:32:30.426Z,6.53
2019-03-23T23:36:35.844Z,6.50
2019-03-23T23:40:41.495Z,7.10
2019-03-23T23:44:46.938Z,6.87
2019-03-23T23:48:53.087Z,6.10
2019-03-23T23:52:58.509Z,7.10
2019-03-23T23:57:04.018Z,6.37
